sensor_id;sensor_type;location;lat;lon;timestamp;pressure;altitude;pressure_sealevel;temperature;humidity
40730;BME280;26418;50.070;8.436;2023-12-20T00:00:51;99965.28;;;4.22;100.00
40730;BME280;26418;50.070;8.436;2023-12-20T00:03:17;99964.53;;;4.27;100.00
40730;BME280;26418;50.070;8.436;2023-12-20T00:05:42;99959.94;;;4.22;100.00
40730;BME280;26418;50.070;8.436;2023-12-20T00:08:08;99969.31;;;4.24;100.00
40730;BME280;26418;50.070;8.436;2023-12-20T00:10:33;99966.66;;;4.24;100.00
40730;BME280;26418;50.070;8.436;2023-12-20T00:12:59;99956.16;;;4.18;100.00
40730;BME280;26418;50.070;8.436;2023-12-20T00:15:24;99944.31;;;4.08;100.00
40730;BME280;26418;50.070;8.436;2023-12-20T00:17:50;99958.03;;;4.17;100.00
40730;BME280;26418;50.070;8.436;2023-12-20T00:20:15;99961.00;;;4.21;100.00
40730;BME280;26418;50.070;8.436;2023-12-20T00:22:41;99961.25;;;4.19;100.00
40730;BME280;26418;50.070;8.436;2023-12-20T00:25:07;99963.13;;;4.19;100.00
40730;BME280;26418;50.070;8.436;2023-12-20T00:27:33;99955.91;;;4.19;100.00
40730;BME280;26418;50.070;8.436;2023-12-20T00:29:58;99947.31;;;4.17;100.00
40730;BME280;26418;50.070;8.436;2023-12-20T00:32:24;99951.63;;;4.18;100.00
40730;BME280;26418;50.070;8.436;2023-12-20T00:34:49;99940.84;;;4.13;100.00
40730;BME280;26418;50.070;8.436;2023-12-20T00:37:15;99940.63;;;4.15;100.00
40730;BME280;26418;50.070;8.436;2023-12-20T00:39:41;99946.78;;;4.20;100.00
40730;BME280;26418;50.070;8.436;2023-12-20T00:42:07;99932.31;;;4.11;100.00
40730;BME280;26418;50.070;8.436;2023-12-20T00:44:33;99944.38;;;4.19;100.00
40730;BME280;26418;50.070;8.436;2023-12-20T00:46:58;99944.94;;;4.21;100.00
40730;BME280;26418;50.070;8.436;2023-12-20T00:49:24;99947.31;;;4.17;100.00
40730;BME280;26418;50.070;8.436;2023-12-20T00:51:49;99939.00;;;4.14;100.00
40730;BME280;26418;50.070;8.436;2023-12-20T00:54:16;99944.38;;;4.19;100.00
40730;BME280;26418;50.070;8.436;2023-12-20T00:56:41;99921.81;;;4.04;100.00
40730;BME280;26418;50.070;8.436;2023-12-20T00:59:07;99938.22;;;4.18;100.00
40730;BME280;26418;50.070;8.436;2023-12-20T01:01:32;99928.81;;;4.16;100.00
40730;BME280;26418;50.070;8.436;2023-12-20T01:03:58;99912.44;;;4.07;100.00
40730;BME280;26418;50.070;8.436;2023-12-20T01:06:24;99927.25;;;4.15;100.00
40730;BME280;26418;50.070;8.436;2023-12-20T01:08:49;99933.09;;;4.12;100.00
40730;BME280;26418;50.070;8.436;2023-12-20T01:11:15;99918.34;;;4.09;100.00
40730;BME280;26418;50.070;8.436;2023-12-20T01:13:42;99916.75;;;4.08;100.00
40730;BME280;26418;50.070;8.436;2023-12-20T01:16:10;99926.09;;;4.05;100.00
40730;BME280;26418;50.070;8.436;2023-12-20T01:18:36;99925.84;;;4.07;100.00
40730;BME280;26418;50.070;8.436;2023-12-20T01:21:02;99922.88;;;4.08;100.00
40730;BME280;26418;50.070;8.436;2023-12-20T01:23:29;99911.59;;;4.01;100.00
40730;BME280;26418;50.070;8.436;2023-12-20T01:25:54;99896.88;;;3.99;100.00
40730;BME280;26418;50.070;8.436;2023-12-20T01:28:20;99927.75;;;4.12;100.00
40730;BME280;26418;50.070;8.436;2023-12-20T01:30:46;99911.13;;;4.09;100.00
40730;BME280;26418;50.070;8.436;2023-12-20T01:33:11;99918.09;;;4.11;100.00
40730;BME280;26418;50.070;8.436;2023-12-20T01:35:37;99916.47;;;4.09;100.00
40730;BME280;26418;50.070;8.436;2023-12-20T01:38:02;99923.19;;;4.12;100.00
40730;BME280;26418;50.070;8.436;2023-12-20T01:40:28;99912.19;;;4.08;100.00
40730;BME280;26418;50.070;8.436;2023-12-20T01:43:18;99913.56;;;4.11;100.00
40730;BME280;26418;50.070;8.436;2023-12-20T01:45:43;99931.22;;;4.12;100.00
40730;BME280;26418;50.070;8.436;2023-12-20T01:48:11;99937.31;;;4.07;100.00
40730;BME280;26418;50.070;8.436;2023-12-20T01:50:37;99946.19;;;4.08;100.00
40730;BME280;26418;50.070;8.436;2023-12-20T01:53:07;99964.66;;;4.09;100.00
40730;BME280;26418;50.070;8.436;2023-12-20T01:55:35;99961.47;;;4.13;100.00
40730;BME280;26418;50.070;8.436;2023-12-20T01:58:03;99948.03;;;4.07;100.00
40730;BME280;26418;50.070;8.436;2023-12-20T02:00:30;99945.16;;;4.14;100.00
40730;BME280;26418;50.070;8.436;2023-12-20T02:02:56;99949.44;;;4.15;100.00
40730;BME280;26418;50.070;8.436;2023-12-20T02:05:26;99941.69;;;4.14;100.00
40730;BME280;26418;50.070;8.436;2023-12-20T02:07:53;99906.25;;;4.01;100.00
40730;BME280;26418;50.070;8.436;2023-12-20T02:10:18;99937.13;;;4.14;100.00
40730;BME280;26418;50.070;8.436;2023-12-20T02:12:44;99940.63;;;4.15;100.00
40730;BME280;26418;50.070;8.436;2023-12-20T02:15:10;99930.16;;;4.13;100.00
40730;BME280;26418;50.070;8.436;2023-12-20T02:17:36;99924.78;;;4.08;100.00
40730;BME280;26418;50.070;8.436;2023-12-20T02:20:02;99903.63;;;4.06;100.00
40730;BME280;26418;50.070;8.436;2023-12-20T02:22:28;99900.09;;;4.01;100.00
40730;BME280;26418;50.070;8.436;2023-12-20T02:24:53;99918.09;;;4.11;100.00
40730;BME280;26418;50.070;8.436;2023-12-20T02:27:19;99915.41;;;4.11;100.00
40730;BME280;26418;50.070;8.436;2023-12-20T02:29:47;99916.78;;;4.13;100.00
40730;BME280;26418;50.070;8.436;2023-12-20T02:32:13;99918.38;;;4.14;100.00
40730;BME280;26418;50.070;8.436;2023-12-20T02:34:39;99921.28;;;4.07;100.00
40730;BME280;26418;50.070;8.436;2023-12-20T02:37:04;99917.22;;;4.00;100.00
40730;BME280;26418;50.070;8.436;2023-12-20T02:39:30;99932.81;;;4.13;100.00
40730;BME280;26418;50.070;8.436;2023-12-20T02:41:55;99934.44;;;4.14;100.00
40730;BME280;26418;50.070;8.436;2023-12-20T02:44:21;99918.88;;;4.06;100.00
40730;BME280;26418;50.070;8.436;2023-12-20T02:46:46;99906.03;;;4.08;100.00
40730;BME280;26418;50.070;8.436;2023-12-20T02:49:12;99916.53;;;4.15;100.00
40730;BME280;26418;50.070;8.436;2023-12-20T02:51:37;99917.31;;;4.15;100.00
40730;BME280;26418;50.070;8.436;2023-12-20T02:54:04;99919.72;;;4.17;100.00
40730;BME280;26418;50.070;8.436;2023-12-20T02:56:29;99924.78;;;4.13;100.00
40730;BME280;26418;50.070;8.436;2023-12-20T02:58:55;99931.00;;;4.19;100.00
40730;BME280;26418;50.070;8.436;2023-12-20T03:01:21;99945.22;;;4.19;100.00
40730;BME280;26418;50.070;8.436;2023-12-20T03:03:46;99943.88;;;4.22;100.00
40730;BME280;26418;50.070;8.436;2023-12-20T03:06:16;99940.94;;;4.23;100.00
40730;BME280;26418;50.070;8.436;2023-12-20T03:08:42;99941.16;;;4.17;100.00
40730;BME280;26418;50.070;8.436;2023-12-20T03:11:07;99925.34;;;4.10;100.00
40730;BME280;26418;50.070;8.436;2023-12-20T03:13:33;99919.44;;;4.13;100.00
40730;BME280;26418;50.070;8.436;2023-12-20T03:15:58;99932.31;;;4.11;100.00
40730;BME280;26418;50.070;8.436;2023-12-20T03:18:24;99925.28;;;4.05;100.00
40730;BME280;26418;50.070;8.436;2023-12-20T03:20:49;99935.78;;;4.12;100.00
40730;BME280;26418;50.070;8.436;2023-12-20T03:23:16;99931.19;;;4.07;100.00
40730;BME280;26418;50.070;8.436;2023-12-20T03:25:41;99946.22;;;4.13;100.00
40730;BME280;26418;50.070;8.436;2023-12-20T03:28:07;99943.25;;;4.09;100.00
40730;BME280;26418;50.070;8.436;2023-12-20T03:30:32;99948.09;;;4.13;100.00
40730;BME280;26418;50.070;8.436;2023-12-20T03:32:58;99928.97;;;3.99;100.00
40730;BME280;26418;50.070;8.436;2023-12-20T03:35:23;99944.31;;;4.08;100.00
40730;BME280;26418;50.070;8.436;2023-12-20T03:37:49;99968.44;;;4.14;100.00
40730;BME280;26418;50.070;8.436;2023-12-20T03:40:14;99962.50;;;4.06;100.00
40730;BME280;26418;50.070;8.436;2023-12-20T03:42:40;99956.81;;;3.98;100.00
40730;BME280;26418;50.070;8.436;2023-12-20T03:45:06;99967.25;;;3.99;100.00
40730;BME280;26418;50.070;8.436;2023-12-20T03:47:31;99972.34;;;4.01;100.00
40730;BME280;26418;50.070;8.436;2023-12-20T03:49:57;99970.19;;;3.98;100.00
40730;BME280;26418;50.070;8.436;2023-12-20T03:52:22;99970.75;;;4.00;100.00
40730;BME280;26418;50.070;8.436;2023-12-20T03:54:48;99960.81;;;3.95;100.00
40730;BME280;26418;50.070;8.436;2023-12-20T03:57:13;99961.69;;;4.06;100.00
40730;BME280;26418;50.070;8.436;2023-12-20T03:59:39;99964.19;;;4.18;100.00
40730;BME280;26418;50.070;8.436;2023-12-20T04:02:04;99961.50;;;4.18;100.00
40730;BME280;26418;50.070;8.436;2023-12-20T04:04:30;99978.50;;;4.34;100.00
40730;BME280;26418;50.070;8.436;2023-12-20T04:06:55;99962.38;;;4.29;100.00
40730;BME280;26418;50.070;8.436;2023-12-20T04:09:21;99967.50;;;4.30;100.00
40730;BME280;26418;50.070;8.436;2023-12-20T04:11:46;99972.88;;;4.35;100.00
40730;BME280;26418;50.070;8.436;2023-12-20T04:14:12;99956.25;;;4.33;100.00
40730;BME280;26418;50.070;8.436;2023-12-20T04:16:38;99980.13;;;4.40;100.00
40730;BME280;26418;50.070;8.436;2023-12-20T04:19:04;99979.06;;;4.41;100.00
40730;BME280;26418;50.070;8.436;2023-12-20T04:21:30;99980.41;;;4.38;100.00
40730;BME280;26418;50.070;8.436;2023-12-20T04:23:56;99965.91;;;4.34;100.00
40730;BME280;26418;50.070;8.436;2023-12-20T04:26:22;99988.44;;;4.38;100.00
40730;BME280;26418;50.070;8.436;2023-12-20T04:28:47;99993.81;;;4.44;100.00
40730;BME280;26418;50.070;8.436;2023-12-20T04:31:13;99994.59;;;4.39;100.00
40730;BME280;26418;50.070;8.436;2023-12-20T04:33:38;99988.16;;;4.40;100.00
40730;BME280;26418;50.070;8.436;2023-12-20T04:36:04;99977.66;;;4.33;100.00
40730;BME280;26418;50.070;8.436;2023-12-20T04:38:30;99979.28;;;4.34;100.00
40730;BME280;26418;50.070;8.436;2023-12-20T04:40:55;99998.13;;;4.50;100.00
40730;BME280;26418;50.070;8.436;2023-12-20T04:43:21;99992.78;;;4.50;100.00
40730;BME280;26418;50.070;8.436;2023-12-20T04:45:46;99989.00;;;4.46;100.00
40730;BME280;26418;50.070;8.436;2023-12-20T04:48:12;100000.81;;;4.50;100.00
40730;BME280;26418;50.070;8.436;2023-12-20T04:50:38;100009.69;;;4.55;100.00
40730;BME280;26418;50.070;8.436;2023-12-20T04:53:03;100009.66;;;4.50;100.00
40730;BME280;26418;50.070;8.436;2023-12-20T04:55:29;100009.94;;;4.49;100.00
40730;BME280;26418;50.070;8.436;2023-12-20T04:57:54;100015.34;;;4.59;100.00
40730;BME280;26418;50.070;8.436;2023-12-20T05:00:20;100016.69;;;4.62;100.00
40730;BME280;26418;50.070;8.436;2023-12-20T05:02:45;100016.97;;;4.60;100.00
40730;BME280;26418;50.070;8.436;2023-12-20T05:05:11;100021.25;;;4.61;100.00
40730;BME280;26418;50.070;8.436;2023-12-20T05:07:37;100021.19;;;4.51;100.00
40730;BME280;26418;50.070;8.436;2023-12-20T05:10:03;100027.31;;;4.46;100.00
40730;BME280;26418;50.070;8.436;2023-12-20T05:12:30;100040.16;;;4.44;100.00
40730;BME280;26418;50.070;8.436;2023-12-20T05:14:56;100028.53;;;4.33;100.00
40730;BME280;26418;50.070;8.436;2023-12-20T05:17:21;100040.09;;;4.39;100.00
40730;BME280;26418;50.070;8.436;2023-12-20T05:19:47;100028.78;;;4.27;100.00
40730;BME280;26418;50.070;8.436;2023-12-20T05:22:13;100051.84;;;4.33;100.00
40730;BME280;26418;50.070;8.436;2023-12-20T05:24:38;100047.22;;;4.23;100.00
40730;BME280;26418;50.070;8.436;2023-12-20T05:27:04;100034.19;;;4.04;100.00
40730;BME280;26418;50.070;8.436;2023-12-20T05:29:29;100042.34;;;4.15;100.00
40730;BME280;26418;50.070;8.436;2023-12-20T05:31:55;100044.94;;;4.09;100.00
40730;BME280;26418;50.070;8.436;2023-12-20T05:34:20;100048.38;;;4.05;100.00
40730;BME280;26418;50.070;8.436;2023-12-20T05:36:46;100042.69;;;3.96;100.00
40730;BME280;26418;50.070;8.436;2023-12-20T05:39:12;100028.13;;;3.82;100.00
40730;BME280;26418;50.070;8.436;2023-12-20T05:41:37;100030.97;;;3.75;100.00
40730;BME280;26418;50.070;8.436;2023-12-20T05:44:03;100033.59;;;3.70;100.00
40730;BME280;26418;50.070;8.436;2023-12-20T05:46:28;100033.19;;;3.56;100.00
40730;BME280;26418;50.070;8.436;2023-12-20T05:48:54;100036.09;;;3.54;100.00
40730;BME280;26418;50.070;8.436;2023-12-20T05:51:19;100041.66;;;3.48;100.00
40730;BME280;26418;50.070;8.436;2023-12-20T05:53:45;100053.84;;;3.38;100.00
40730;BME280;26418;50.070;8.436;2023-12-20T05:56:11;100046.56;;;3.34;100.00
40730;BME280;26418;50.070;8.436;2023-12-20T05:58:38;100042.72;;;3.24;100.00
40730;BME280;26418;50.070;8.436;2023-12-20T06:01:04;100053.22;;;3.31;100.00
40730;BME280;26418;50.070;8.436;2023-12-20T06:03:30;100062.00;;;3.26;100.00
40730;BME280;26418;50.070;8.436;2023-12-20T06:05:55;100049.78;;;3.13;100.00
40730;BME280;26418;50.070;8.436;2023-12-20T06:08:21;100060.47;;;3.13;100.00
40730;BME280;26418;50.070;8.436;2023-12-20T06:10:46;100047.41;;;2.95;100.00
40730;BME280;26418;50.070;8.436;2023-12-20T06:13:12;100072.41;;;3.06;100.00
40730;BME280;26418;50.070;8.436;2023-12-20T06:15:39;100086.16;;;3.14;100.00
40730;BME280;26418;50.070;8.436;2023-12-20T06:18:05;100094.66;;;3.11;100.00
40730;BME280;26418;50.070;8.436;2023-12-20T06:20:32;100080.66;;;3.04;100.00
40730;BME280;26418;50.070;8.436;2023-12-20T06:22:57;100073.56;;;2.93;100.00
40730;BME280;26418;50.070;8.436;2023-12-20T06:25:23;100081.41;;;2.82;100.00
40730;BME280;26418;50.070;8.436;2023-12-20T06:27:48;100078.19;;;2.80;100.00
40730;BME280;26418;50.070;8.436;2023-12-20T06:30:15;100098.66;;;2.92;100.00
40730;BME280;26418;50.070;8.436;2023-12-20T06:32:41;100077.16;;;3.04;100.00
40730;BME280;26418;50.070;8.436;2023-12-20T06:35:08;100087.34;;;3.46;100.00
40730;BME280;26418;50.070;8.436;2023-12-20T06:37:34;100073.38;;;3.88;100.00
40730;BME280;26418;50.070;8.436;2023-12-20T06:40:00;100076.72;;;4.33;100.00
40730;BME280;26418;50.070;8.436;2023-12-20T06:42:26;100068.13;;;4.64;100.00
40730;BME280;26418;50.070;8.436;2023-12-20T06:44:52;100065.09;;;4.87;100.00
40730;BME280;26418;50.070;8.436;2023-12-20T06:47:17;100053.38;;;4.99;100.00
40730;BME280;26418;50.070;8.436;2023-12-20T06:49:43;100065.22;;;5.13;100.00
40730;BME280;26418;50.070;8.436;2023-12-20T06:52:08;100062.06;;;5.22;100.00
40730;BME280;26418;50.070;8.436;2023-12-20T06:54:34;100065.91;;;5.41;100.00
40730;BME280;26418;50.070;8.436;2023-12-20T06:57:00;100072.38;;;5.50;100.00
40730;BME280;26418;50.070;8.436;2023-12-20T06:59:25;100072.94;;;5.53;100.00
40730;BME280;26418;50.070;8.436;2023-12-20T07:01:51;100058.97;;;5.45;100.00
40730;BME280;26418;50.070;8.436;2023-12-20T07:04:17;100075.00;;;5.40;100.00
40730;BME280;26418;50.070;8.436;2023-12-20T07:06:47;100084.53;;;5.10;100.00
40730;BME280;26418;50.070;8.436;2023-12-20T07:09:13;100087.81;;;4.80;100.00
40730;BME280;26418;50.070;8.436;2023-12-20T07:11:40;100091.94;;;4.55;100.00
40730;BME280;26418;50.070;8.436;2023-12-20T07:14:05;100100.81;;;4.28;100.00
40730;BME280;26418;50.070;8.436;2023-12-20T07:16:31;100100.34;;;4.09;100.00
40730;BME280;26418;50.070;8.436;2023-12-20T07:18:57;100116.34;;;4.04;100.00
40730;BME280;26418;50.070;8.436;2023-12-20T07:21:23;100118.72;;;4.00;100.00
40730;BME280;26418;50.070;8.436;2023-12-20T07:23:48;100113.75;;;3.87;100.00
40730;BME280;26418;50.070;8.436;2023-12-20T07:26:15;100094.00;;;3.66;100.00
40730;BME280;26418;50.070;8.436;2023-12-20T07:28:41;100099.78;;;3.57;100.00
40730;BME280;26418;50.070;8.436;2023-12-20T07:31:06;100105.31;;;3.51;100.00
40730;BME280;26418;50.070;8.436;2023-12-20T07:33:32;100114.66;;;3.48;100.00
40730;BME280;26418;50.070;8.436;2023-12-20T07:35:59;100121.66;;;3.54;100.00
40730;BME280;26418;50.070;8.436;2023-12-20T07:38:25;100135.56;;;3.51;100.00
40730;BME280;26418;50.070;8.436;2023-12-20T07:40:50;100125.59;;;3.46;100.00
40730;BME280;26418;50.070;8.436;2023-12-20T07:43:16;100119.69;;;3.44;100.00
40730;BME280;26418;50.070;8.436;2023-12-20T07:45:42;100115.38;;;3.43;100.00
40730;BME280;26418;50.070;8.436;2023-12-20T07:48:07;100120.16;;;3.41;100.00
40730;BME280;26418;50.070;8.436;2023-12-20T07:50:33;100129.16;;;3.52;100.00
40730;BME280;26418;50.070;8.436;2023-12-20T07:52:59;100127.53;;;3.51;100.00
40730;BME280;26418;50.070;8.436;2023-12-20T07:55:26;100137.16;;;3.52;100.00
40730;BME280;26418;50.070;8.436;2023-12-20T07:57:52;100128.31;;;3.52;100.00
40730;BME280;26418;50.070;8.436;2023-12-20T08:00:17;100137.53;;;3.61;100.00
40730;BME280;26418;50.070;8.436;2023-12-20T08:02:43;100138.09;;;3.63;100.00
40730;BME280;26418;50.070;8.436;2023-12-20T08:05:09;100135.75;;;3.67;100.00
40730;BME280;26418;50.070;8.436;2023-12-20T08:07:34;100132.56;;;3.70;100.00
40730;BME280;26418;50.070;8.436;2023-12-20T08:10:00;100139.59;;;3.76;100.00
40730;BME280;26418;50.070;8.436;2023-12-20T08:12:26;100139.91;;;3.80;100.00
40730;BME280;26418;50.070;8.436;2023-12-20T08:14:53;100137.16;;;3.74;100.00
40730;BME280;26418;50.070;8.436;2023-12-20T08:17:19;100128.63;;;3.77;100.00
40730;BME280;26418;50.070;8.436;2023-12-20T08:19:44;100146.66;;;3.87;100.00
40730;BME280;26418;50.070;8.436;2023-12-20T08:22:11;100133.84;;;3.89;100.00
40730;BME280;26418;50.070;8.436;2023-12-20T08:24:36;100134.25;;;3.98;100.00
40730;BME280;26418;50.070;8.436;2023-12-20T08:27:02;100135.91;;;4.04;100.00
40730;BME280;26418;50.070;8.436;2023-12-20T08:29:27;100135.63;;;4.06;100.00
40730;BME280;26418;50.070;8.436;2023-12-20T08:31:53;100148.84;;;4.13;100.00
40730;BME280;26418;50.070;8.436;2023-12-20T08:34:19;100151.00;;;4.16;100.00
40730;BME280;26418;50.070;8.436;2023-12-20T08:36:45;100144.59;;;4.17;100.00
40730;BME280;26418;50.070;8.436;2023-12-20T08:39:10;100143.59;;;4.23;100.00
40730;BME280;26418;50.070;8.436;2023-12-20T08:41:36;100153.00;;;4.25;100.00
40730;BME280;26418;50.070;8.436;2023-12-20T08:44:02;100152.16;;;4.25;100.00
40730;BME280;26418;50.070;8.436;2023-12-20T08:46:28;100156.47;;;4.26;100.00
40730;BME280;26418;50.070;8.436;2023-12-20T08:48:54;100161.88;;;4.31;100.00
40730;BME280;26418;50.070;8.436;2023-12-20T08:51:20;100164.31;;;4.33;100.00
40730;BME280;26418;50.070;8.436;2023-12-20T08:53:48;100160.31;;;4.35;100.00
40730;BME280;26418;50.070;8.436;2023-12-20T08:56:14;100155.50;;;4.37;100.00
40730;BME280;26418;50.070;8.436;2023-12-20T08:58:40;100153.41;;;4.39;100.00
40730;BME280;26418;50.070;8.436;2023-12-20T09:01:06;100157.72;;;4.46;100.00
40730;BME280;26418;50.070;8.436;2023-12-20T09:03:32;100156.41;;;4.48;100.00
40730;BME280;26418;50.070;8.436;2023-12-20T09:05:58;100157.53;;;4.52;100.00
40730;BME280;26418;50.070;8.436;2023-12-20T09:08:24;100148.13;;;4.50;100.00
40730;BME280;26418;50.070;8.436;2023-12-20T09:10:49;100149.78;;;4.56;100.00
40730;BME280;26418;50.070;8.436;2023-12-20T09:13:15;100157.91;;;4.66;100.00
40730;BME280;26418;50.070;8.436;2023-12-20T09:15:41;100163.03;;;4.68;100.00
40730;BME280;26418;50.070;8.436;2023-12-20T09:18:06;100150.94;;;4.65;100.00
40730;BME280;26418;50.070;8.436;2023-12-20T09:20:32;100152.81;;;4.65;100.00
40730;BME280;26418;50.070;8.436;2023-12-20T09:22:58;100139.53;;;4.80;100.00
40730;BME280;26418;50.070;8.436;2023-12-20T09:25:24;100138.34;;;4.98;100.00
40730;BME280;26418;50.070;8.436;2023-12-20T09:27:49;100142.75;;;5.15;100.00
40730;BME280;26418;50.070;8.436;2023-12-20T09:30:15;100139.03;;;5.26;100.00
40730;BME280;26418;50.070;8.436;2023-12-20T09:32:40;100134.50;;;5.27;100.00
40730;BME280;26418;50.070;8.436;2023-12-20T09:35:06;100138.03;;;5.32;100.00
40730;BME280;26418;50.070;8.436;2023-12-20T09:37:32;100146.88;;;5.38;100.00
40730;BME280;26418;50.070;8.436;2023-12-20T09:39:57;100138.34;;;5.46;100.00
40730;BME280;26418;50.070;8.436;2023-12-20T09:42:43;100146.16;;;5.58;100.00
40730;BME280;26418;50.070;8.436;2023-12-20T09:45:13;100139.00;;;5.69;100.00
40730;BME280;26418;50.070;8.436;2023-12-20T09:47:40;100138.50;;;5.77;100.00
40730;BME280;26418;50.070;8.436;2023-12-20T09:50:07;100141.75;;;5.85;100.00
40730;BME280;26418;50.070;8.436;2023-12-20T09:52:34;100149.88;;;6.00;100.00
40730;BME280;26418;50.070;8.436;2023-12-20T09:55:01;100146.94;;;6.07;99.04
40730;BME280;26418;50.070;8.436;2023-12-20T09:57:31;100158.25;;;6.19;98.52
40730;BME280;26418;50.070;8.436;2023-12-20T09:59:57;100147.81;;;6.28;98.78
40730;BME280;26418;50.070;8.436;2023-12-20T10:02:25;100140.56;;;6.34;97.38
40730;BME280;26418;50.070;8.436;2023-12-20T10:04:54;100123.06;;;6.26;95.57
40730;BME280;26418;50.070;8.436;2023-12-20T10:07:19;100135.97;;;6.24;95.38
40730;BME280;26418;50.070;8.436;2023-12-20T10:09:46;100132.19;;;6.14;96.19
40730;BME280;26418;50.070;8.436;2023-12-20T10:12:12;100132.97;;;6.10;95.96
40730;BME280;26418;50.070;8.436;2023-12-20T10:14:41;100135.66;;;6.05;95.95
40730;BME280;26418;50.070;8.436;2023-12-20T10:17:06;100138.84;;;6.02;96.85
40730;BME280;26418;50.070;8.436;2023-12-20T10:19:33;100147.44;;;5.98;97.61
40730;BME280;26418;50.070;8.436;2023-12-20T10:22:04;100135.94;;;6.03;97.60
40730;BME280;26418;50.070;8.436;2023-12-20T10:24:30;100139.41;;;6.09;96.88
40730;BME280;26418;50.070;8.436;2023-12-20T10:27:03;100132.44;;;6.13;96.66
40730;BME280;26418;50.070;8.436;2023-12-20T10:29:35;100105.59;;;6.13;96.97
40730;BME280;26418;50.070;8.436;2023-12-20T10:32:25;100106.69;;;6.27;97.38
40730;BME280;26418;50.070;8.436;2023-12-20T10:34:52;100102.94;;;6.28;96.41
40730;BME280;26418;50.070;8.436;2023-12-20T10:37:18;100087.88;;;6.17;95.99
40730;BME280;26418;50.070;8.436;2023-12-20T10:39:44;100099.44;;;6.28;95.99
40730;BME280;26418;50.070;8.436;2023-12-20T10:42:13;100090.03;;;6.25;95.50
40730;BME280;26418;50.070;8.436;2023-12-20T10:44:39;100085.47;;;6.26;94.97
40730;BME280;26418;50.070;8.436;2023-12-20T10:47:06;100070.44;;;6.20;95.07
40730;BME280;26418;50.070;8.436;2023-12-20T10:49:34;100084.66;;;6.25;94.92
40730;BME280;26418;50.070;8.436;2023-12-20T10:52:02;100071.25;;;6.31;95.53
40730;BME280;26418;50.070;8.436;2023-12-20T10:54:29;100078.22;;;6.32;95.47
40730;BME280;26418;50.070;8.436;2023-12-20T10:56:57;100073.13;;;6.35;94.12
40730;BME280;26418;50.070;8.436;2023-12-20T10:59:24;100060.47;;;6.25;93.81
40730;BME280;26418;50.070;8.436;2023-12-20T11:01:50;100065.88;;;6.31;93.17
40730;BME280;26418;50.070;8.436;2023-12-20T11:04:22;100075.28;;;6.33;92.21
40730;BME280;26418;50.070;8.436;2023-12-20T11:07:08;100072.56;;;6.38;92.60
40730;BME280;26418;50.070;8.436;2023-12-20T11:09:45;100062.66;;;6.39;90.99
40730;BME280;26418;50.070;8.436;2023-12-20T11:14:42;100069.09;;;6.43;90.99
40730;BME280;26418;50.070;8.436;2023-12-20T11:17:11;100064.25;;;6.45;90.53
40730;BME280;26418;50.070;8.436;2023-12-20T11:22:24;100063.97;;;6.67;87.78
40730;BME280;26418;50.070;8.436;2023-12-20T11:24:51;100075.28;;;6.80;87.65
40730;BME280;26418;50.070;8.436;2023-12-20T11:27:18;100055.38;;;6.75;86.44
40730;BME280;26418;50.070;8.436;2023-12-20T11:29:51;100079.25;;;6.98;85.34
40730;BME280;26418;50.070;8.436;2023-12-20T11:35:01;100077.84;;;7.16;83.27
40730;BME280;26418;50.070;8.436;2023-12-20T11:37:41;100065.78;;;7.13;83.03
40730;BME280;26418;50.070;8.436;2023-12-20T11:40:15;100069.78;;;7.16;81.97
40730;BME280;26418;50.070;8.436;2023-12-20T11:42:43;100065.50;;;7.10;82.10
40730;BME280;26418;50.070;8.436;2023-12-20T11:45:16;100067.66;;;7.13;83.23
40730;BME280;26418;50.070;8.436;2023-12-20T11:47:49;100067.09;;;7.16;83.16
40730;BME280;26418;50.070;8.436;2023-12-20T11:50:19;100072.50;;;7.11;82.41
40730;BME280;26418;50.070;8.436;2023-12-20T11:52:45;100058.28;;;7.00;82.03
40730;BME280;26418;50.070;8.436;2023-12-20T11:55:11;100056.13;;;7.07;82.09
40730;BME280;26418;50.070;8.436;2023-12-20T11:57:36;100053.41;;;7.02;81.02
40730;BME280;26418;50.070;8.436;2023-12-20T12:00:06;100063.09;;;7.03;81.15
40730;BME280;26418;50.070;8.436;2023-12-20T12:02:32;100044.84;;;6.95;80.75
40730;BME280;26418;50.070;8.436;2023-12-20T12:04:59;100017.47;;;6.82;81.48
40730;BME280;26418;50.070;8.436;2023-12-20T12:07:24;100038.94;;;6.98;81.87
40730;BME280;26418;50.070;8.436;2023-12-20T12:09:51;100027.06;;;7.09;81.65
40730;BME280;26418;50.070;8.436;2023-12-20T12:12:17;100002.31;;;7.07;80.89
40730;BME280;26418;50.070;8.436;2023-12-20T12:14:44;100022.38;;;7.35;81.03
40730;BME280;26418;50.070;8.436;2023-12-20T12:17:11;100015.09;;;7.41;78.02
40730;BME280;26418;50.070;8.436;2023-12-20T12:19:37;100012.91;;;7.43;78.04
40730;BME280;26418;50.070;8.436;2023-12-20T12:22:14;100024.22;;;7.50;77.92
40730;BME280;26418;50.070;8.436;2023-12-20T12:24:41;100035.47;;;7.52;76.95
40730;BME280;26418;50.070;8.436;2023-12-20T12:27:07;100040.09;;;7.47;76.45
40730;BME280;26418;50.070;8.436;2023-12-20T12:29:33;100032.59;;;7.38;77.23
40730;BME280;26418;50.070;8.436;2023-12-20T12:31:59;100036.88;;;7.45;77.68
40730;BME280;26418;50.070;8.436;2023-12-20T12:34:27;100030.41;;;7.46;77.08
40730;BME280;26418;50.070;8.436;2023-12-20T12:36:53;100023.69;;;7.43;77.27
40730;BME280;26418;50.070;8.436;2023-12-20T12:39:18;100022.59;;;7.44;76.39
40730;BME280;26418;50.070;8.436;2023-12-20T12:41:44;100029.84;;;7.49;77.50
40730;BME280;26418;50.070;8.436;2023-12-20T12:44:09;100017.78;;;7.41;77.48
40730;BME280;26418;50.070;8.436;2023-12-20T12:46:35;100021.03;;;7.38;76.79
40730;BME280;26418;50.070;8.436;2023-12-20T12:49:01;100023.22;;;7.31;77.30
40730;BME280;26418;50.070;8.436;2023-12-20T12:51:26;100007.59;;;7.28;78.48
40730;BME280;26418;50.070;8.436;2023-12-20T12:53:53;99992.63;;;7.16;78.30
40730;BME280;26418;50.070;8.436;2023-12-20T12:56:18;99991.75;;;7.26;78.61
40730;BME280;26418;50.070;8.436;2023-12-20T12:58:44;99993.38;;;7.27;78.60